Virginia, Idaho
Current Conditions -  °F | °C
As of 11:53 AM on Friday 24 Oct 2014 (Local Time) from KPIH Reporting Station
Clear Clear  
Wind Chill: 64°   Ceiling: Unl
Heat Index: 64°   Visibility: 10mi
Dew Point: 36°   Wind: 3mph
Humidity: 35%   Direction: NA
Pressure: 30.15"   Gusts: NA
Location:  42.4064°N, 112.076°W
Report Text: KPIH 241753Z VRB03KT 10SM CLR 18/02 A3015 RMK AO2 SLP187 T01780022 10183 20061 58002
Loading
Personal Weather Stations






























Interactive Weather Map
Tropical Storm Tracking
New forecast layout! Learn more

10-Day Weather Forecast

Advertisements
Track Severe Weather on mobile